createdAt,value
2022-10-04T00:02:13.669Z,3.60
2022-10-04T00:04:45.982Z,3.90
2022-10-04T00:07:12.312Z,3.70
2022-10-04T00:09:54.914Z,3.53
2022-10-04T00:12:27.013Z,3.40
2022-10-04T00:14:55.234Z,3.22
2022-10-04T00:17:24.567Z,3.22
2022-10-04T00:19:52.077Z,3.50
2022-10-04T00:22:32.120Z,3.08
2022-10-04T00:25:07.678Z,3.20
2022-10-04T00:27:35.178Z,3.17
2022-10-04T00:30:01.493Z,2.88
2022-10-04T00:32:43.072Z,3.40
2022-10-04T00:35:24.586Z,3.08
2022-10-04T00:37:56.505Z,3.08
2022-10-04T00:40:22.955Z,3.00
2022-10-04T00:42:56.304Z,3.03
2022-10-04T00:45:28.623Z,3.67
2022-10-04T00:47:57.106Z,2.85
2022-10-04T00:50:41.897Z,3.03
2022-10-04T00:53:35.508Z,3.00
2022-10-04T00:56:03.374Z,2.95
2022-10-04T00:58:33.807Z,2.83
2022-10-04T01:01:00.415Z,2.67
2022-10-04T01:03:30.555Z,2.65
2022-10-04T01:06:01.359Z,2.55
2022-10-04T01:08:31.243Z,2.60
2022-10-04T01:11:10.304Z,2.63
2022-10-04T01:13:40.387Z,2.85
2022-10-04T01:16:14.638Z,2.67
2022-10-04T01:18:41.114Z,2.63
2022-10-04T01:21:09.718Z,2.30
2022-10-04T01:23:43.411Z,2.47
2022-10-04T01:26:34.447Z,2.38
2022-10-04T01:29:09.242Z,1.98
2022-10-04T01:31:56.323Z,2.53
2022-10-04T01:34:24.747Z,2.38
2022-10-04T01:36:52.791Z,2.42
2022-10-04T01:39:20.373Z,2.38
2022-10-04T01:42:01.662Z,2.20
2022-10-04T01:44:37.050Z,2.40
2022-10-04T01:47:06.337Z,2.30
2022-10-04T01:49:34.273Z,1.85
2022-10-04T01:52:07.592Z,2.13
2022-10-04T01:54:40.617Z,1.90
2022-10-04T01:57:17.297Z,2.00
2022-10-04T01:59:51.316Z,2.10
2022-10-04T02:05:06.007Z,1.80
2022-10-04T02:07:32.767Z,1.70
2022-10-04T02:10:01.846Z,1.70
2022-10-04T02:12:28.514Z,1.73
2022-10-04T02:14:55.731Z,1.80
2022-10-04T02:17:24.203Z,1.80
2022-10-04T02:19:51.094Z,1.70
2022-10-04T02:22:17.548Z,1.80
2022-10-04T02:24:45.373Z,1.80
2022-10-04T02:27:12.259Z,1.60
2022-10-04T02:29:38.718Z,1.70
2022-10-04T02:32:24.526Z,1.92
2022-10-04T02:34:51.016Z,1.70
2022-10-04T02:37:18.321Z,1.50
2022-10-04T02:39:47.806Z,1.60
2022-10-04T02:42:26.373Z,1.55
2022-10-04T02:44:59.461Z,1.95
2022-10-04T02:47:29.589Z,6.00
2022-10-04T02:50:13.984Z,4.78
2022-10-04T02:55:39.072Z,8.15
2022-10-04T02:58:09.769Z,8.90
2022-10-04T03:00:45.379Z,10.02
2022-10-04T03:03:27.779Z,8.13
2022-10-04T03:05:58.506Z,7.82
2022-10-04T03:08:25.934Z,7.95
2022-10-04T03:10:52.765Z,7.30
2022-10-04T03:13:19.523Z,7.32
2022-10-04T03:15:46.454Z,6.70
2022-10-04T03:18:14.299Z,6.20
2022-10-04T03:20:40.759Z,7.13
2022-10-04T03:23:07.204Z,6.95
2022-10-04T03:25:55.368Z,5.95
2022-10-04T03:28:21.902Z,6.85
2022-10-04T03:30:49.357Z,6.70
2022-10-04T03:33:25.617Z,6.05
2022-10-04T03:35:54.207Z,5.85
2022-10-04T03:38:21.056Z,5.70
2022-10-04T03:40:51.608Z,5.80
2022-10-04T03:43:18.134Z,5.03
2022-10-04T03:45:44.740Z,5.03
2022-10-04T03:48:13.319Z,5.07
2022-10-04T03:50:46.833Z,4.78
2022-10-04T03:53:37.229Z,5.35
2022-10-04T03:56:09.712Z,4.75
2022-10-04T03:58:36.479Z,4.32
2022-10-04T04:01:14.658Z,4.63
2022-10-04T04:03:53.465Z,4.43
2022-10-04T04:06:20.290Z,4.00
2022-10-04T04:08:48.719Z,4.00
2022-10-04T04:11:25.780Z,4.40
2022-10-04T04:14:04.143Z,4.15
2022-10-04T04:16:31.417Z,3.85
2022-10-04T04:19:00.005Z,3.78
2022-10-04T04:21:26.463Z,3.80
2022-10-04T04:23:58.698Z,4.35
2022-10-04T04:26:40.976Z,3.70
2022-10-04T04:29:44.510Z,3.63
2022-10-04T04:32:40.195Z,3.60
2022-10-04T04:35:08.337Z,3.20
2022-10-04T04:37:35.555Z,3.95
2022-10-04T04:40:31.470Z,3.72
2022-10-04T04:42:59.270Z,2.85
2022-10-04T04:45:29.524Z,3.50
2022-10-04T04:47:58.841Z,3.10
2022-10-04T04:50:27.948Z,3.47
2022-10-04T04:52:55.964Z,3.15
2022-10-04T04:55:44.474Z,2.95
2022-10-04T04:58:21.365Z,3.15
2022-10-04T05:00:57.013Z,2.63
2022-10-04T05:03:24.039Z,3.20
2022-10-04T05:05:51.766Z,3.08
2022-10-04T05:08:21.978Z,2.45
2022-10-04T05:10:57.776Z,3.00
2022-10-04T05:13:31.943Z,2.90
2022-10-04T05:15:58.466Z,2.88
2022-10-04T05:18:29.025Z,2.72
2022-10-04T05:20:56.341Z,2.80
2022-10-04T05:23:22.821Z,2.55
2022-10-04T05:25:49.703Z,2.63
2022-10-04T05:28:17.043Z,2.53
2022-10-04T05:31:03.458Z,2.55
2022-10-04T05:33:59.193Z,2.60
2022-10-04T05:36:44.488Z,3.00
2022-10-04T05:39:27.723Z,2.40
2022-10-04T05:41:58.194Z,2.25
2022-10-04T05:44:35.126Z,2.05
2022-10-04T05:47:02.382Z,2.25
2022-10-04T05:49:33.274Z,2.00
2022-10-04T05:52:03.712Z,2.05
2022-10-04T05:54:32.794Z,2.60
2022-10-04T05:57:09.614Z,2.20
2022-10-04T06:00:13.667Z,1.98
2022-10-04T06:02:58.729Z,2.08
2022-10-04T06:05:28.868Z,1.95
2022-10-04T06:08:01.989Z,1.80
2022-10-04T06:10:34.537Z,1.92
2022-10-04T06:13:15.098Z,1.83
2022-10-04T06:16:01.706Z,1.50
2022-10-04T06:18:33.793Z,2.15
2022-10-04T06:21:24.576Z,2.40
2022-10-04T06:23:55.523Z,2.00
2022-10-04T06:26:25.550Z,1.70
2022-10-04T06:29:00.529Z,2.10
2022-10-04T06:31:57.390Z,1.77
2022-10-04T06:34:51.872Z,1.90
2022-10-04T06:37:46.882Z,1.67
2022-10-04T06:40:47.236Z,1.67
2022-10-04T06:43:16.486Z,1.70
2022-10-04T06:46:15.656Z,1.55
2022-10-04T06:49:19.923Z,1.77
2022-10-04T06:52:34.535Z,1.80
2022-10-04T06:55:33.208Z,1.55
2022-10-04T06:58:18.437Z,1.30
2022-10-04T07:00:59.046Z,1.77
2022-10-04T07:03:39.735Z,1.48
2022-10-04T07:06:07.362Z,1.63
2022-10-04T07:08:44.710Z,1.40
2022-10-04T07:11:15.312Z,1.20
2022-10-04T07:13:47.946Z,1.40
2022-10-04T07:16:44.969Z,1.23
2022-10-04T07:19:20.414Z,1.35
2022-10-04T07:22:08.692Z,1.20
2022-10-04T07:24:59.960Z,1.40
2022-10-04T07:27:32.813Z,1.50
2022-10-04T07:30:00.473Z,1.15
2022-10-04T07:32:28.591Z,1.58
2022-10-04T07:35:10.368Z,1.50
2022-10-04T07:37:49.770Z,1.13
2022-10-04T07:40:31.684Z,1.30
2022-10-04T07:43:00.578Z,1.35
2022-10-04T07:45:39.783Z,1.40
2022-10-04T07:48:09.160Z,1.13
2022-10-04T07:50:39.839Z,1.58
2022-10-04T07:53:13.166Z,1.17
2022-10-04T07:56:01.043Z,1.48
2022-10-04T07:58:44.696Z,1.70
2022-10-04T08:01:39.808Z,1.40
2022-10-04T08:04:11.480Z,1.13
2022-10-04T08:06:57.952Z,1.17
2022-10-04T08:09:38.155Z,1.30
2022-10-04T08:12:29.628Z,1.50
2022-10-04T08:15:26.824Z,1.30
2022-10-04T08:17:57.867Z,1.10
2022-10-04T08:20:27.318Z,1.15
2022-10-04T08:23:05.868Z,1.25
2022-10-04T08:25:42.435Z,1.27
2022-10-04T08:28:43.692Z,1.30
2022-10-04T08:31:13.149Z,1.10
2022-10-04T08:34:08.590Z,1.23
2022-10-04T08:36:53.333Z,1.25
2022-10-04T08:39:35.331Z,1.23
2022-10-04T08:42:04.965Z,1.55
2022-10-04T08:44:31.432Z,1.30
2022-10-04T08:47:22.131Z,1.42
2022-10-04T08:49:58.899Z,1.00
2022-10-04T08:52:50.369Z,1.00
2022-10-04T08:55:54.166Z,1.30
2022-10-04T08:58:45.428Z,0.88
2022-10-04T09:01:28.069Z,1.30
2022-10-04T09:04:12.604Z,1.27
2022-10-04T09:06:50.910Z,1.40
2022-10-04T09:09:44.468Z,1.00
2022-10-04T09:12:22.947Z,1.23
2022-10-04T09:15:07.760Z,1.10
2022-10-04T09:17:52.427Z,1.05
2022-10-04T09:20:38.629Z,1.10
2022-10-04T09:23:22.086Z,1.25
2022-10-04T09:26:27.327Z,1.30
2022-10-04T09:29:12.405Z,1.20
2022-10-04T09:32:16.721Z,0.90
2022-10-04T09:35:06.371Z,1.10
2022-10-04T09:37:36.271Z,0.98
2022-10-04T09:40:42.385Z,1.00
2022-10-04T09:43:49.296Z,1.00
2022-10-04T09:46:18.715Z,1.35
2022-10-04T09:49:06.847Z,0.90
2022-10-04T09:52:15.428Z,1.00
2022-10-04T09:54:47.358Z,0.98
2022-10-04T09:57:28.024Z,1.08
2022-10-04T10:00:10.694Z,1.13
2022-10-04T10:02:47.434Z,1.00
2022-10-04T10:05:38.364Z,0.85
2022-10-04T10:08:32.148Z,1.17
2022-10-04T10:11:46.322Z,1.00
2022-10-04T10:14:37.026Z,1.02
2022-10-04T10:17:22.456Z,1.02
2022-10-04T10:19:54.540Z,0.93
2022-10-04T10:22:58.543Z,0.90
2022-10-04T10:26:10.808Z,1.30
2022-10-04T10:29:10.895Z,1.00
2022-10-04T10:32:15.135Z,1.00
2022-10-04T10:34:56.886Z,1.00
2022-10-04T10:37:46.111Z,1.02
2022-10-04T10:40:41.028Z,0.93
2022-10-04T10:43:22.050Z,1.20
2022-10-04T10:45:59.757Z,1.10
2022-10-04T10:48:35.605Z,1.30
2022-10-04T10:51:49.941Z,1.02
2022-10-04T10:54:54.148Z,1.35
2022-10-04T10:57:46.286Z,1.27
2022-10-04T11:00:26.118Z,1.13
2022-10-04T11:03:17.263Z,1.30
2022-10-04T11:06:04.456Z,1.23
2022-10-04T11:09:10.116Z,1.30
2022-10-04T11:11:41.883Z,1.42
2022-10-04T11:14:18.329Z,0.95
2022-10-04T11:17:04.005Z,1.30
2022-10-04T11:20:09.315Z,1.00
2022-10-04T11:22:38.394Z,1.20
2022-10-04T11:25:08.042Z,1.30
2022-10-04T11:27:57.191Z,1.17
2022-10-04T11:30:26.281Z,1.00
2022-10-04T11:33:11.815Z,1.30
2022-10-04T11:35:59.592Z,1.20
2022-10-04T11:38:29.046Z,1.15
2022-10-04T11:41:26.153Z,1.20
2022-10-04T11:44:00.395Z,1.27
2022-10-04T11:46:36.042Z,1.25
2022-10-04T11:49:47.178Z,1.40
2022-10-04T11:52:32.203Z,1.10
2022-10-04T11:55:32.121Z,1.00
2022-10-04T11:58:11.999Z,1.30
2022-10-04T12:01:16.302Z,1.40
2022-10-04T12:03:55.090Z,1.20
2022-10-04T12:06:35.649Z,1.20
2022-10-04T12:09:26.066Z,1.40
2022-10-04T12:12:37.657Z,1.63
2022-10-04T12:15:08.479Z,1.70
2022-10-04T12:18:12.661Z,1.52
2022-10-04T12:20:40.054Z,1.50
2022-10-04T12:23:21.816Z,1.58
2022-10-04T12:26:09.655Z,1.10
2022-10-04T12:28:44.938Z,1.45
2022-10-04T12:31:16.415Z,1.60
2022-10-04T12:34:07.578Z,1.70
2022-10-04T12:36:41.309Z,1.50
2022-10-04T12:39:22.212Z,1.40
2022-10-04T12:42:10.891Z,1.58
2022-10-04T12:44:52.991Z,2.03
2022-10-04T12:47:50.530Z,1.50
2022-10-04T12:50:20.746Z,1.42
2022-10-04T12:52:57.254Z,1.63
2022-10-04T12:55:55.270Z,1.40
2022-10-04T12:58:30.350Z,1.48
2022-10-04T13:01:02.439Z,1.70
2022-10-04T13:03:50.454Z,1.70
2022-10-04T13:06:47.124Z,1.80
2022-10-04T13:09:23.445Z,1.48
2022-10-04T13:12:08.567Z,1.70
2022-10-04T13:14:50.632Z,1.70
2022-10-04T13:17:49.388Z,1.20
2022-10-04T13:20:24.613Z,1.23
2022-10-04T13:23:00.098Z,1.55
2022-10-04T13:25:41.998Z,1.90
2022-10-04T13:28:21.375Z,1.60
2022-10-04T13:31:09.932Z,1.20
2022-10-04T13:33:46.170Z,1.45
2022-10-04T13:36:46.738Z,1.60
2022-10-04T13:39:31.657Z,1.55
2022-10-04T13:42:19.318Z,1.52
2022-10-04T13:45:10.388Z,1.42
2022-10-04T13:48:18.173Z,1.63
2022-10-04T13:51:11.529Z,1.65
2022-10-04T13:54:46.644Z,1.60
2022-10-04T13:57:22.185Z,1.70
2022-10-04T14:00:01.848Z,1.85
2022-10-04T14:03:01.040Z,1.60
2022-10-04T14:05:27.559Z,1.60
2022-10-04T14:08:12.036Z,1.55
2022-10-04T14:11:07.739Z,1.70
2022-10-04T14:13:53.741Z,1.92
2022-10-04T14:16:45.083Z,1.40
2022-10-04T14:19:42.450Z,1.58
2022-10-04T14:22:28.481Z,1.70
2022-10-04T14:25:23.309Z,1.50
2022-10-04T14:28:27.550Z,1.50
2022-10-04T14:31:20.001Z,1.58
2022-10-04T14:33:47.293Z,1.80
2022-10-04T14:36:25.786Z,1.38
2022-10-04T14:38:58.148Z,1.33
2022-10-04T14:41:33.105Z,1.52
2022-10-04T14:44:27.681Z,1.48
2022-10-04T14:47:20.410Z,1.60
2022-10-04T14:50:00.705Z,1.58
2022-10-04T14:52:32.384Z,1.50
2022-10-04T14:55:03.830Z,1.58
2022-10-04T14:57:42.226Z,1.30
2022-10-04T15:00:20.384Z,1.42
2022-10-04T15:03:07.850Z,1.45
2022-10-04T15:05:34.178Z,1.58
2022-10-04T15:08:21.904Z,1.35
2022-10-04T15:10:49.432Z,1.40
2022-10-04T15:13:55.549Z,1.40
2022-10-04T15:16:44.411Z,1.38
2022-10-04T15:19:20.698Z,1.20
2022-10-04T15:21:47.092Z,1.25
2022-10-04T15:24:16.459Z,1.33
2022-10-04T15:26:46.169Z,1.50
2022-10-04T15:29:31.849Z,1.50
2022-10-04T15:32:20.132Z,1.40
2022-10-04T15:35:15.857Z,1.20
2022-10-04T15:38:27.704Z,1.45
2022-10-04T15:41:01.917Z,1.50
2022-10-04T15:43:50.090Z,1.30
2022-10-04T15:46:44.765Z,1.58
2022-10-04T15:49:59.804Z,1.30
2022-10-04T15:52:44.392Z,1.25
2022-10-04T15:55:25.683Z,1.40
2022-10-04T15:58:22.610Z,1.52
2022-10-04T16:01:17.765Z,1.50
2022-10-04T16:04:09.931Z,1.40
2022-10-04T16:06:46.995Z,1.20
2022-10-04T16:09:39.408Z,1.30
2022-10-04T16:12:25.793Z,1.40
2022-10-04T16:14:56.322Z,1.48
2022-10-04T16:17:44.288Z,1.40
2022-10-04T16:20:27.984Z,1.27
2022-10-04T16:23:26.657Z,1.40
2022-10-04T16:26:01.969Z,1.50
2022-10-04T16:28:39.326Z,1.10
2022-10-04T16:31:24.942Z,1.25
2022-10-04T16:33:56.095Z,1.23
2022-10-04T16:36:23.920Z,1.15
2022-10-04T16:39:11.785Z,1.48
2022-10-04T16:41:58.515Z,1.05
2022-10-04T16:44:38.272Z,1.30
2022-10-04T16:47:52.796Z,1.00
2022-10-04T16:50:43.900Z,1.27
2022-10-04T16:53:48.831Z,1.40
2022-10-04T16:59:05.159Z,1.33
2022-10-04T17:02:00.559Z,1.35
2022-10-04T17:04:36.025Z,1.23
2022-10-04T17:07:24.283Z,1.30
2022-10-04T17:10:20.313Z,1.15
2022-10-04T17:13:08.580Z,4.65
2022-10-04T17:15:47.139Z,2.70
2022-10-04T17:18:30.153Z,2.80
2022-10-04T17:21:01.766Z,2.63
2022-10-04T17:23:41.041Z,2.50
2022-10-04T17:26:13.135Z,2.13
2022-10-04T17:29:04.120Z,2.35
2022-10-04T17:31:41.145Z,2.15
2022-10-04T17:34:37.038Z,2.35
2022-10-04T17:37:11.269Z,1.70
2022-10-04T17:39:48.129Z,2.28
2022-10-04T17:42:29.925Z,2.00
2022-10-04T17:45:38.960Z,2.22
2022-10-04T17:48:23.976Z,2.35
2022-10-04T17:51:21.857Z,2.35
2022-10-04T17:54:10.613Z,2.42
2022-10-04T17:56:43.032Z,2.42
2022-10-04T17:59:12.942Z,2.40
2022-10-04T18:01:47.518Z,2.55
2022-10-04T18:04:17.202Z,2.40
2022-10-04T18:06:44.022Z,2.25
2022-10-04T18:09:19.349Z,2.17
2022-10-04T18:12:12.960Z,2.00
2022-10-04T18:15:22.692Z,1.88
2022-10-04T18:17:49.243Z,2.20
2022-10-04T18:20:32.080Z,2.00
2022-10-04T18:23:06.401Z,1.83
2022-10-04T18:25:33.867Z,2.13
2022-10-04T18:28:07.324Z,2.45
2022-10-04T18:30:45.870Z,1.90
2022-10-04T18:33:16.289Z,1.85
2022-10-04T18:36:05.217Z,2.20
2022-10-04T18:38:33.869Z,2.10
2022-10-04T18:41:15.837Z,2.00
2022-10-04T18:43:59.286Z,1.80
2022-10-04T18:46:25.869Z,2.10
2022-10-04T18:49:18.180Z,1.70
2022-10-04T18:52:02.947Z,1.73
2022-10-04T18:55:06.798Z,1.83
2022-10-04T18:58:00.059Z,1.73
2022-10-04T19:00:49.324Z,1.70
2022-10-04T19:03:53.333Z,1.67
2022-10-04T19:06:26.770Z,1.63
2022-10-04T19:09:11.500Z,1.90
2022-10-04T19:12:07.350Z,1.90
2022-10-04T19:14:53.619Z,1.80
2022-10-04T19:17:32.230Z,1.75
2022-10-04T19:20:19.259Z,1.60
2022-10-04T19:23:07.160Z,1.92
2022-10-04T19:25:39.158Z,1.60
2022-10-04T19:28:12.891Z,1.60
2022-10-04T19:30:57.642Z,1.60
2022-10-04T19:33:30.047Z,2.08
2022-10-04T19:36:13.078Z,1.75
2022-10-04T19:39:01.415Z,1.73
2022-10-04T19:41:48.086Z,2.40
2022-10-04T19:44:44.010Z,5.93
2022-10-04T19:47:40.983Z,10.63
2022-10-04T19:50:31.284Z,11.60
2022-10-04T19:53:03.708Z,11.75
2022-10-04T19:55:59.549Z,11.75
2022-10-04T19:58:42.109Z,11.00
2022-10-04T20:01:13.611Z,11.50
2022-10-04T20:03:40.229Z,11.07
2022-10-04T20:06:07.463Z,10.00
2022-10-04T20:08:56.763Z,11.20
2022-10-04T20:11:28.635Z,11.25
2022-10-04T20:14:07.247Z,11.10
2022-10-04T20:17:02.583Z,10.40
2022-10-04T20:19:28.900Z,10.13
2022-10-04T20:21:56.201Z,10.38
2022-10-04T20:24:37.938Z,9.70
2022-10-04T20:27:22.909Z,9.70
2022-10-04T20:29:49.268Z,8.85
2022-10-04T20:32:33.962Z,8.43
2022-10-04T20:39:07.741Z,9.45
2022-10-04T20:41:52.833Z,9.68
2022-10-04T20:44:54.451Z,9.07
2022-10-04T20:47:40.214Z,9.23
2022-10-04T20:50:09.573Z,8.63
2022-10-04T20:52:36.381Z,9.30
2022-10-04T20:55:03.138Z,8.73
2022-10-04T20:57:30.187Z,8.38
2022-10-04T20:59:57.589Z,8.38
2022-10-04T21:02:27.300Z,7.65
2022-10-04T21:04:54.081Z,8.07
2022-10-04T21:07:21.906Z,7.50
2022-10-04T21:09:48.455Z,7.50
2022-10-04T21:12:40.079Z,8.48
2022-10-04T21:15:15.690Z,6.78
2022-10-04T21:17:42.359Z,7.05
2022-10-04T21:20:35.534Z,7.30
2022-10-04T21:23:16.903Z,7.45
2022-10-04T21:25:43.350Z,6.72
2022-10-04T21:28:29.759Z,7.00
2022-10-04T21:30:56.409Z,7.20
2022-10-04T21:33:22.897Z,6.50
2022-10-04T21:35:51.339Z,6.35
2022-10-04T21:38:18.312Z,6.43
2022-10-04T21:40:44.856Z,6.57
2022-10-04T21:43:11.362Z,6.40
2022-10-04T21:45:37.842Z,6.00
2022-10-04T21:48:04.319Z,5.75
2022-10-04T21:50:30.794Z,6.03
2022-10-04T21:52:57.425Z,6.00
2022-10-04T21:55:23.888Z,5.68
2022-10-04T21:57:50.357Z,5.40
2022-10-04T22:00:17.081Z,6.07
2022-10-04T22:02:43.600Z,5.38
2022-10-04T22:05:10.121Z,5.47
2022-10-04T22:07:36.600Z,5.22
2022-10-04T22:10:03.089Z,5.68
2022-10-04T22:12:29.587Z,5.32
2022-10-04T22:14:56.031Z,5.05
2022-10-04T22:17:22.498Z,4.90
2022-10-04T22:19:49.856Z,5.35
2022-10-04T22:22:16.986Z,5.22
2022-10-04T22:24:43.478Z,4.90
2022-10-04T22:27:16.723Z,5.00
2022-10-04T22:29:43.247Z,5.50
2022-10-04T22:32:22.532Z,4.80
2022-10-04T22:34:49.017Z,4.88
2022-10-04T22:37:15.483Z,4.82
2022-10-04T22:39:41.956Z,4.78
2022-10-04T22:42:11.372Z,4.22
2022-10-04T22:44:38.162Z,4.72
2022-10-04T22:47:06.784Z,5.10
2022-10-04T22:49:35.057Z,4.90
2022-10-04T22:52:03.304Z,4.38
2022-10-04T22:54:33.784Z,4.60
2022-10-04T22:57:00.266Z,4.90
2022-10-04T22:59:40.781Z,4.30
2022-10-04T23:02:12.800Z,4.13
2022-10-04T23:04:39.320Z,4.40
2022-10-04T23:07:05.793Z,4.05
2022-10-04T23:09:32.261Z,4.50
2022-10-04T23:11:58.778Z,4.03
2022-10-04T23:14:25.383Z,4.18
2022-10-04T23:16:51.873Z,4.18
2022-10-04T23:19:19.991Z,4.22
2022-10-04T23:21:48.075Z,4.05
2022-10-04T23:24:23.466Z,3.67
2022-10-04T23:26:57.114Z,4.00
2022-10-04T23:29:26.131Z,3.83
2022-10-04T23:31:52.813Z,3.72
2022-10-04T23:34:22.901Z,3.65
2022-10-04T23:36:49.674Z,3.85
2022-10-04T23:39:24.583Z,3.75
2022-10-04T23:41:51.981Z,4.22
2022-10-04T23:44:18.442Z,4.13
2022-10-04T23:46:45.256Z,3.67
2022-10-04T23:49:15.868Z,3.80
2022-10-04T23:51:42.987Z,3.88
2022-10-04T23:54:16.033Z,3.80
2022-10-04T23:56:43.021Z,3.30
2022-10-04T23:59:14.634Z,3.38
